Aérodrome :
LOGIN :

S'inscrire | Disclaimer

   EN    FR    IT 

 










Légende :    VFR   VFR Marginal   IFR   IFR Intensif   IFR Très Intensif
Visi : 
Plafond : 
>= 8 km
>= 3000ft
5 à 8 km
1000 à 3000 ft
1500m à 5 km
500 à 1000 ft
800 à 1500m
200 à 500 ft
< 800m
< 200 ft
Symboles :   Orages  Brouillard  Fortes neiges  Fortes précipitations  Vent > 20 kt
SIGMETs :   Divers  Orages  Givrage  Turbulence  Onde Orograph.  Cendres Volcan.







- Altitude de l'aérodrome : 25 ft
- Code IATA : QCY


EGXC - RAF Coningsby

DERNIER METAR :
  • 170450Z 17007KT 8000 -RA BKN004 BKN012 15/14 Q1008 RERA YLO2

METARs EXPIRÉS :
  • 170350Z 18008KT 7000 RA OVC005 15/14 Q1008 YLO1
  • 170325Z 18008KT 9000 -RA OVC006 14/14 Q1009 YLO1

TAF TAF EGXC
Valide du 17 à 06h jusqu'au 18 à 00h UTC


170437Z 1706/1724 19012KT 9999 BKN025
TEMPO 1706/1709 4000 RA BKN010
PROB30
TEMPO 1706/1708 3000 +RA BKN004
PROB30
TEMPO 1709/1711 SCT020
Pas de NOTAMs connus pour ce terrain.



MET'MAP, la Météo Aéronautique d'un coup d'oeil ! - Copyright ORBIFLY Décembre 2007 - Disclaimer

ORBIFLY MET'MAP TEAM :

Programmation & Développement : Alexandra Zaïnal
Conception & Développement : Baudouin d'Aumeries
Co-Programmation & Développement : Marc-Olivier Méhu
Soutien technique & logistique : Manuel Goepfert

Contact : metmap@orbifly.com




SOURCES & CREDITS :

   NOAA